Time;durP1;ratioP1;P1;durP2;ratioP2;P2;SDS_P1;SDS_P2;PMS_P1;PMS_P2;Temp;Humidity;BMP_temperature;BMP_pressure;BME280_temperature;BME280_humidity;BME280_pressure;Samples;Min_cycle;Max_cycle;Signal;HPM_P1;HPM_P2
2023/09/06 00:24:19;;;;;;;0.28;0.20;;;;;;;;;;4985935;28;20061;-84
2023/09/06 00:26:45;;;;;;;0.20;0.10;;;;;;;;;;4953763;28;20256;-84
2023/09/06 00:29:11;;;;;;;0.20;0.00;;;;;;;;;;4954200;28;20060;-84
2023/09/06 00:31:37;;;;;;;0.20;0.10;;;;;;;;;;4958998;28;20046;-85
2023/09/06 00:34:03;;;;;;;0.55;0.20;;;;;;;;;;4961917;28;20049;-85
2023/09/06 00:36:29;;;;;;;0.20;0.10;;;;;;;;;;4962420;28;20590;-85
2023/09/06 00:39:04;;;;;;;0.20;0.10;;;;;;;;;;4960833;28;20034;-85
2023/09/06 00:41:30;;;;;;;0.20;0.10;;;;;;;;;;4939906;28;20042;-85
2023/09/06 00:43:56;;;;;;;0.20;0.20;;;;;;;;;;4945769;28;20049;-85
2023/09/06 00:46:23;;;;;;;0.20;0.10;;;;;;;;;;4948696;28;20045;-85
2023/09/06 00:48:50;;;;;;;0.47;0.28;;;;;;;;;;4952436;28;20333;-85
2023/09/06 00:51:16;;;;;;;0.20;0.10;;;;;;;;;;4960127;28;20042;-84
2023/09/06 00:53:43;;;;;;;0.22;0.10;;;;;;;;;;4939654;28;20065;-85
2023/09/06 00:56:09;;;;;;;0.43;0.17;;;;;;;;;;4962047;28;20043;-85
2023/09/06 00:58:36;;;;;;;0.20;0.10;;;;;;;;;;4950719;28;20047;-83
2023/09/06 01:01:06;;;;;;;0.20;0.20;;;;;;;;;;4952599;28;20562;-84
2023/09/06 01:03:32;;;;;;;0.20;0.10;;;;;;;;;;4952914;28;20479;-85
2023/09/06 01:06:05;;;;;;;0.20;0.10;;;;;;;;;;4941498;28;20076;-83
2023/09/06 01:08:51;;;;;;;0.30;0.10;;;;;;;;;;4940518;28;20077;-83
2023/09/06 01:11:21;;;;;;;0.20;0.10;;;;;;;;;;4935670;28;20396;-83
2023/09/06 01:13:51;;;;;;;0.30;0.20;;;;;;;;;;4953069;28;20117;-84
2023/09/06 01:16:24;;;;;;;0.20;0.10;;;;;;;;;;4940592;28;20046;-84
2023/09/06 01:18:50;;;;;;;0.20;0.15;;;;;;;;;;4936778;28;20222;-84
2023/09/06 01:21:17;;;;;;;0.20;0.00;;;;;;;;;;4948140;28;20030;-85
2023/09/06 01:23:44;;;;;;;0.20;0.10;;;;;;;;;;4945136;28;20038;-85
2023/09/06 01:26:10;;;;;;;0.20;0.10;;;;;;;;;;4959943;28;20685;-84
2023/09/06 01:28:36;;;;;;;0.32;0.20;;;;;;;;;;4954042;28;20038;-83
2023/09/06 01:31:02;;;;;;;0.20;0.10;;;;;;;;;;4962293;28;20050;-84
2023/09/06 01:33:29;;;;;;;0.25;0.15;;;;;;;;;;4941723;28;20070;-84
2023/09/06 01:35:55;;;;;;;0.20;0.10;;;;;;;;;;4946981;28;20031;-85
2023/09/06 01:38:21;;;;;;;0.20;0.10;;;;;;;;;;4958240;28;20140;-85
2023/09/06 01:40:47;;;;;;;0.20;0.20;;;;;;;;;;4940482;28;20057;-83
2023/09/06 01:43:14;;;;;;;0.20;0.10;;;;;;;;;;4939099;28;20072;-83
2023/09/06 01:45:54;;;;;;;0.20;0.10;;;;;;;;;;4932634;28;20553;-84
2023/09/06 01:48:20;;;;;;;0.20;0.10;;;;;;;;;;4943243;28;20046;-85
2023/09/06 01:50:47;;;;;;;0.30;0.15;;;;;;;;;;4962414;28;20049;-83
2023/09/06 01:53:13;;;;;;;0.20;0.10;;;;;;;;;;4951350;28;20495;-85
2023/09/06 01:55:43;;;;;;;0.20;0.10;;;;;;;;;;4965821;28;20054;-85
2023/09/06 01:58:12;;;;;;;0.20;0.10;;;;;;;;;;4956312;28;20133;-83
2023/09/06 02:00:38;;;;;;;0.20;0.17;;;;;;;;;;4966659;28;20678;-83
2023/09/06 02:03:09;;;;;;;0.20;0.10;;;;;;;;;;4964550;28;20490;-85
2023/09/06 02:05:36;;;;;;;0.20;0.20;;;;;;;;;;4951185;28;20046;-84
2023/09/06 02:08:04;;;;;;;0.20;0.00;;;;;;;;;;4947085;28;20447;-84
2023/09/06 02:10:30;;;;;;;0.20;0.10;;;;;;;;;;4946603;28;20495;-85
2023/09/06 02:12:56;;;;;;;0.20;0.20;;;;;;;;;;4948673;28;20042;-83
2023/09/06 02:15:23;;;;;;;0.20;0.10;;;;;;;;;;4967556;28;20049;-84
2023/09/06 02:17:49;;;;;;;0.20;0.10;;;;;;;;;;4962280;28;22331;-84
2023/09/06 02:22:41;;;;;;;0.30;0.10;;;;;;;;;;4963109;28;20046;-84
2023/09/06 02:25:08;;;;;;;0.20;0.10;;;;;;;;;;4956462;28;20045;-83
2023/09/06 02:27:34;;;;;;;0.20;0.20;;;;;;;;;;4960513;28;20125;-84
2023/09/06 02:30:06;;;;;;;0.20;0.17;;;;;;;;;;4958536;28;20044;-83
2023/09/06 02:32:33;;;;;;;0.20;0.10;;;;;;;;;;4960788;28;20102;-85
2023/09/06 02:35:01;;;;;;;0.20;0.10;;;;;;;;;;4974628;28;20042;-85
2023/09/06 02:37:27;;;;;;;0.30;0.17;;;;;;;;;;4959338;23;20046;-80
2023/09/06 02:39:53;;;;;;;0.22;0.22;;;;;;;;;;4966265;28;20039;-80
2023/09/06 02:42:20;;;;;;;0.47;0.10;;;;;;;;;;4950815;28;20109;-80
2023/09/06 02:44:46;;;;;;;0.50;0.30;;;;;;;;;;4974909;28;20046;-80
2023/09/06 02:47:15;;;;;;;0.20;0.10;;;;;;;;;;4986533;28;20129;-80
2023/09/06 02:49:42;;;;;;;0.20;0.10;;;;;;;;;;4967717;28;20038;-79
2023/09/06 02:52:12;;;;;;;0.25;0.20;;;;;;;;;;4966566;28;20492;-79
2023/09/06 02:54:42;;;;;;;0.30;0.20;;;;;;;;;;4939659;28;20396;-79
2023/09/06 02:57:14;;;;;;;0.20;0.17;;;;;;;;;;4956734;28;20152;-79
2023/09/06 02:59:40;;;;;;;0.20;0.10;;;;;;;;;;4973410;28;20049;-80
2023/09/06 03:02:06;;;;;;;0.20;0.13;;;;;;;;;;4971602;28;20047;-79
2023/09/06 03:04:37;;;;;;;0.20;0.00;;;;;;;;;;4939699;28;20066;-80
2023/09/06 03:07:10;;;;;;;0.20;0.10;;;;;;;;;;4971189;28;20046;-80
2023/09/06 03:09:38;;;;;;;0.20;0.10;;;;;;;;;;4970846;28;20073;-79
2023/09/06 03:12:11;;;;;;;0.20;0.10;;;;;;;;;;4971937;28;20039;-80
2023/09/06 03:14:44;;;;;;;0.20;0.10;;;;;;;;;;4971635;28;20035;-79
2023/09/06 03:17:13;;;;;;;0.30;0.17;;;;;;;;;;4974873;28;20077;-79
2023/09/06 03:19:44;;;;;;;0.20;0.15;;;;;;;;;;4988307;28;20046;-80
2023/09/06 03:22:12;;;;;;;0.20;0.10;;;;;;;;;;4972836;28;20219;-80
2023/09/06 03:24:41;;;;;;;0.20;0.10;;;;;;;;;;4961505;28;20077;-80
2023/09/06 03:27:08;;;;;;;0.30;0.17;;;;;;;;;;4972534;28;20039;-80
2023/09/06 03:29:38;;;;;;;0.20;0.10;;;;;;;;;;4973474;28;20043;-79
2023/09/06 03:32:07;;;;;;;0.20;0.10;;;;;;;;;;4958490;28;20046;-80
2023/09/06 03:34:34;;;;;;;0.20;0.10;;;;;;;;;;4975066;28;20098;-79
2023/09/06 03:37:00;;;;;;;0.20;0.10;;;;;;;;;;4968823;28;20577;-79
2023/09/06 03:39:29;;;;;;;0.20;0.10;;;;;;;;;;4975853;28;20089;-80
2023/09/06 03:41:57;;;;;;;0.35;0.13;;;;;;;;;;4976257;28;20045;-79
2023/09/06 03:44:24;;;;;;;0.35;0.20;;;;;;;;;;4970310;28;20069;-80
2023/09/06 03:46:51;;;;;;;0.20;0.10;;;;;;;;;;4975046;28;20077;-79
2023/09/06 03:49:18;;;;;;;0.20;0.10;;;;;;;;;;4966611;28;20046;-79
2023/09/06 03:51:45;;;;;;;0.25;0.15;;;;;;;;;;4973695;28;20077;-79
2023/09/06 03:54:12;;;;;;;0.20;0.15;;;;;;;;;;4972484;28;20037;-79
2023/09/06 03:56:38;;;;;;;0.57;0.25;;;;;;;;;;4959012;28;20239;-80
2023/09/06 03:59:08;;;;;;;0.20;0.10;;;;;;;;;;4970686;28;20073;-80
2023/09/06 04:01:34;;;;;;;0.20;0.13;;;;;;;;;;4963498;28;20046;-80
2023/09/06 04:04:01;;;;;;;0.20;0.10;;;;;;;;;;4967130;28;21393;-80
2023/09/06 04:06:30;;;;;;;0.50;0.40;;;;;;;;;;4964968;28;20059;-79
2023/09/06 04:08:56;;;;;;;0.25;0.10;;;;;;;;;;4970370;28;20526;-79
2023/09/06 04:11:23;;;;;;;0.20;0.10;;;;;;;;;;4966244;28;20499;-79
2023/09/06 04:13:51;;;;;;;0.20;0.20;;;;;;;;;;4971730;28;20050;-80
2023/09/06 04:16:17;;;;;;;0.20;0.10;;;;;;;;;;4975224;28;20038;-80
2023/09/06 04:18:43;;;;;;;0.20;0.10;;;;;;;;;;4971825;28;20038;-80
2023/09/06 04:21:09;;;;;;;0.20;0.10;;;;;;;;;;4961206;28;20638;-79
2023/09/06 04:23:36;;;;;;;0.20;0.13;;;;;;;;;;4958634;28;20549;-80
2023/09/06 04:26:05;;;;;;;0.40;0.30;;;;;;;;;;4963800;28;20345;-79
2023/09/06 04:28:31;;;;;;;1.05;0.82;;;;;;;;;;4945440;28;20042;-80
2023/09/06 04:30:58;;;;;;;0.20;0.10;;;;;;;;;;4959061;28;20038;-79
2023/09/06 04:33:24;;;;;;;0.20;0.10;;;;;;;;;;4968062;28;20043;-80
2023/09/06 04:35:51;;;;;;;0.20;0.00;;;;;;;;;;4964655;28;20108;-80
2023/09/06 04:38:18;;;;;;;0.20;0.10;;;;;;;;;;4966548;28;20496;-80
2023/09/06 04:40:44;;;;;;;0.30;0.10;;;;;;;;;;4970496;28;20066;-80
2023/09/06 04:43:11;;;;;;;2.00;0.63;;;;;;;;;;4976170;28;20331;-80
2023/09/06 04:45:40;;;;;;;0.20;0.10;;;;;;;;;;4972039;28;20714;-79
2023/09/06 04:48:10;;;;;;;0.20;0.10;;;;;;;;;;4954703;28;20193;-80
2023/09/06 04:50:39;;;;;;;0.20;0.10;;;;;;;;;;4959821;28;20062;-80
2023/09/06 04:53:07;;;;;;;0.20;0.10;;;;;;;;;;4967793;28;20046;-79
2023/09/06 04:55:35;;;;;;;0.20;0.17;;;;;;;;;;4952815;28;20046;-80
2023/09/06 04:58:05;;;;;;;0.20;0.00;;;;;;;;;;4976467;28;21312;-79
2023/09/06 05:00:37;;;;;;;0.20;0.10;;;;;;;;;;4971257;28;20050;-79
2023/09/06 05:03:08;;;;;;;0.20;0.10;;;;;;;;;;4970628;28;20380;-80
2023/09/06 05:05:35;;;;;;;0.60;0.20;;;;;;;;;;4958045;28;20060;-80
2023/09/06 05:08:03;;;;;;;0.20;0.10;;;;;;;;;;4975347;28;20050;-79
2023/09/06 05:10:29;;;;;;;0.20;0.00;;;;;;;;;;4954445;28;20042;-79
2023/09/06 05:12:55;;;;;;;0.20;0.10;;;;;;;;;;4970865;28;20068;-80
2023/09/06 05:15:21;;;;;;;0.20;0.10;;;;;;;;;;4970290;28;20594;-80
2023/09/06 05:17:47;;;;;;;0.20;0.10;;;;;;;;;;4968789;28;20482;-79
2023/09/06 05:20:27;;;;;;;0.20;0.10;;;;;;;;;;4960253;28;20062;-79
2023/09/06 05:22:53;;;;;;;0.30;0.25;;;;;;;;;;4967631;28;20082;-80
2023/09/06 05:25:19;;;;;;;0.30;0.30;;;;;;;;;;4951988;28;21049;-79
2023/09/06 05:27:45;;;;;;;0.20;0.20;;;;;;;;;;4969261;28;20045;-80
2023/09/06 05:30:12;;;;;;;0.20;0.05;;;;;;;;;;4967341;28;21994;-82
2023/09/06 05:32:38;;;;;;;0.20;0.17;;;;;;;;;;4969804;28;20034;-79
2023/09/06 05:35:04;;;;;;;0.50;0.40;;;;;;;;;;4975700;28;20045;-79
2023/09/06 05:37:30;;;;;;;0.20;0.10;;;;;;;;;;4976934;28;20038;-79
2023/09/06 05:39:56;;;;;;;0.20;0.20;;;;;;;;;;4979199;28;20157;-79
2023/09/06 05:42:22;;;;;;;0.20;0.10;;;;;;;;;;4979682;28;20038;-79
2023/09/06 05:44:48;;;;;;;0.20;0.10;;;;;;;;;;4981436;28;20129;-80
2023/09/06 05:47:14;;;;;;;0.20;0.10;;;;;;;;;;4979531;28;20081;-79
2023/09/06 05:49:40;;;;;;;0.20;0.10;;;;;;;;;;4976742;28;20069;-82
2023/09/06 05:52:06;;;;;;;0.20;0.10;;;;;;;;;;4980979;28;20137;-79
2023/09/06 05:54:32;;;;;;;0.20;0.05;;;;;;;;;;4978537;28;20042;-80
2023/09/06 05:56:59;;;;;;;0.20;0.10;;;;;;;;;;4968370;28;20038;-80
2023/09/06 05:59:25;;;;;;;0.20;0.10;;;;;;;;;;4980671;28;20038;-80
2023/09/06 06:01:51;;;;;;;0.20;0.03;;;;;;;;;;4978730;28;20069;-80
2023/09/06 06:04:17;;;;;;;0.25;0.10;;;;;;;;;;4967524;28;20042;-81
2023/09/06 06:06:43;;;;;;;0.20;0.10;;;;;;;;;;4980094;28;20047;-80
2023/09/06 06:09:11;;;;;;;0.20;0.10;;;;;;;;;;4977595;28;20154;-80
2023/09/06 06:11:40;;;;;;;0.20;0.00;;;;;;;;;;4981848;28;20065;-80
2023/09/06 06:14:07;;;;;;;0.20;0.10;;;;;;;;;;4974048;28;20042;-80
2023/09/06 06:16:33;;;;;;;0.20;0.10;;;;;;;;;;4982118;28;20510;-81
2023/09/06 06:18:59;;;;;;;0.20;0.10;;;;;;;;;;4982825;28;20042;-79
2023/09/06 06:21:29;;;;;;;0.20;0.10;;;;;;;;;;4980447;28;20957;-80
2023/09/06 06:23:56;;;;;;;0.20;0.00;;;;;;;;;;4965277;28;20077;-79
2023/09/06 06:26:22;;;;;;;0.20;0.10;;;;;;;;;;4976116;28;20058;-80
2023/09/06 06:28:49;;;;;;;0.20;0.10;;;;;;;;;;4965738;28;20042;-80
2023/09/06 06:31:15;;;;;;;0.20;0.10;;;;;;;;;;4963087;28;20089;-81
2023/09/06 06:33:43;;;;;;;0.20;0.00;;;;;;;;;;4974328;28;20509;-79
2023/09/06 06:36:09;;;;;;;0.20;0.00;;;;;;;;;;4964376;28;20038;-80
2023/09/06 06:38:35;;;;;;;0.20;0.10;;;;;;;;;;4976767;28;20232;-81
2023/09/06 06:41:01;;;;;;;0.20;0.10;;;;;;;;;;4972138;28;20376;-80
2023/09/06 06:43:27;;;;;;;0.20;0.10;;;;;;;;;;4968863;28;20511;-80
2023/09/06 06:45:54;;;;;;;0.20;0.10;;;;;;;;;;4956872;28;20042;-81
2023/09/06 06:48:20;;;;;;;0.20;0.10;;;;;;;;;;4988129;28;20058;-81
2023/09/06 06:50:46;;;;;;;0.57;0.55;;;;;;;;;;4974185;28;20435;-81
2023/09/06 06:53:12;;;;;;;0.20;0.10;;;;;;;;;;4972328;28;20046;-81
2023/09/06 06:55:38;;;;;;;0.20;0.10;;;;;;;;;;4963626;28;20038;-81
2023/09/06 06:58:07;;;;;;;0.20;0.10;;;;;;;;;;4973593;28;20455;-81
2023/09/06 07:00:35;;;;;;;0.75;0.20;;;;;;;;;;4971022;28;20053;-81
2023/09/06 07:03:01;;;;;;;0.20;0.10;;;;;;;;;;4971535;28;20043;-80
2023/09/06 07:05:27;;;;;;;0.20;0.00;;;;;;;;;;4964580;28;20050;-81
2023/09/06 07:07:54;;;;;;;0.20;0.00;;;;;;;;;;4955162;28;20433;-80
2023/09/06 07:10:21;;;;;;;0.20;0.10;;;;;;;;;;4955988;28;20035;-81
2023/09/06 07:12:48;;;;;;;0.20;0.10;;;;;;;;;;4972265;28;20050;-80
2023/09/06 07:15:14;;;;;;;0.20;0.10;;;;;;;;;;4963201;28;20078;-80
2023/09/06 07:17:41;;;;;;;0.20;0.10;;;;;;;;;;4974632;28;20109;-80
2023/09/06 07:20:08;;;;;;;0.20;0.10;;;;;;;;;;4955806;28;20046;-82
2023/09/06 07:22:34;;;;;;;0.20;0.10;;;;;;;;;;4965335;28;20057;-81
2023/09/06 07:25:00;;;;;;;0.20;0.00;;;;;;;;;;4957843;28;20239;-81
2023/09/06 07:27:26;;;;;;;0.30;0.10;;;;;;;;;;4970182;28;20816;-82
2023/09/06 07:29:52;;;;;;;0.20;0.10;;;;;;;;;;4972701;28;20135;-81
2023/09/06 07:32:18;;;;;;;0.35;0.15;;;;;;;;;;4964168;28;21094;-81
2023/09/06 07:34:44;;;;;;;0.20;0.10;;;;;;;;;;4987445;28;20042;-81
2023/09/06 07:37:10;;;;;;;0.20;0.10;;;;;;;;;;4991009;28;20134;-80
2023/09/06 07:39:37;;;;;;;0.20;0.10;;;;;;;;;;4975043;28;20038;-80
2023/09/06 07:42:06;;;;;;;0.20;0.10;;;;;;;;;;4985682;28;20042;-81
2023/09/06 07:44:32;;;;;;;0.30;0.13;;;;;;;;;;4971603;28;20053;-81
2023/09/06 07:46:59;;;;;;;0.20;0.10;;;;;;;;;;4989642;28;20063;-81
2023/09/06 07:49:28;;;;;;;0.20;0.10;;;;;;;;;;4987593;28;20069;-81
2023/09/06 07:51:54;;;;;;;0.20;0.10;;;;;;;;;;4972535;28;20731;-81
2023/09/06 07:54:20;;;;;;;0.20;0.00;;;;;;;;;;4966415;28;20038;-81
2023/09/06 07:56:47;;;;;;;0.20;0.15;;;;;;;;;;4980846;28;20348;-83
2023/09/06 07:59:13;;;;;;;0.20;0.10;;;;;;;;;;4980586;28;20042;-81
2023/09/06 08:01:39;;;;;;;0.20;0.10;;;;;;;;;;4966753;28;20046;-81
2023/09/06 08:04:05;;;;;;;0.43;0.20;;;;;;;;;;4979503;28;20124;-80
2023/09/06 08:06:32;;;;;;;0.20;0.10;;;;;;;;;;4974853;28;20511;-81
2023/09/06 08:08:58;;;;;;;0.20;0.10;;;;;;;;;;4982795;28;20088;-81
2023/09/06 08:11:25;;;;;;;0.20;0.10;;;;;;;;;;4974000;28;20026;-81
2023/09/06 08:13:51;;;;;;;0.20;0.17;;;;;;;;;;4986646;28;20053;-81
2023/09/06 08:16:17;;;;;;;0.20;0.10;;;;;;;;;;4970472;28;20125;-80
2023/09/06 08:18:44;;;;;;;0.35;0.10;;;;;;;;;;4988121;28;20526;-80
2023/09/06 08:21:10;;;;;;;0.20;0.10;;;;;;;;;;4964454;28;20057;-81
2023/09/06 08:23:36;;;;;;;0.38;0.30;;;;;;;;;;4968953;28;20661;-81
2023/09/06 08:26:03;;;;;;;0.20;0.10;;;;;;;;;;4980532;28;20515;-81
2023/09/06 08:28:30;;;;;;;0.20;0.00;;;;;;;;;;4975281;28;20048;-81
2023/09/06 08:30:56;;;;;;;0.20;0.10;;;;;;;;;;4981626;28;20034;-81
2023/09/06 08:33:22;;;;;;;0.20;0.10;;;;;;;;;;4970230;28;20034;-84
2023/09/06 08:35:48;;;;;;;0.20;0.10;;;;;;;;;;4969299;28;20042;-82
2023/09/06 08:38:14;;;;;;;0.20;0.10;;;;;;;;;;4968853;28;20042;-82
2023/09/06 08:40:40;;;;;;;0.20;0.10;;;;;;;;;;4954610;28;20408;-81
2023/09/06 08:43:11;;;;;;;0.20;0.00;;;;;;;;;;4967040;28;20042;-81
2023/09/06 08:45:37;;;;;;;0.20;0.10;;;;;;;;;;4960525;28;20042;-83
2023/09/06 08:48:03;;;;;;;0.20;0.10;;;;;;;;;;4975197;28;20042;-82
2023/09/06 08:50:41;;;;;;;0.20;0.20;;;;;;;;;;5011738;23;20028;-83
2023/09/06 08:53:11;;;;;;;0.20;0.10;;;;;;;;;;4911975;28;20047;-85
2023/09/06 08:55:38;;;;;;;0.20;0.00;;;;;;;;;;4926903;28;20043;-83
2023/09/06 08:58:04;;;;;;;0.30;0.30;;;;;;;;;;4928071;28;20189;-85
2023/09/06 09:00:31;;;;;;;0.20;0.10;;;;;;;;;;4924984;28;20044;-84
2023/09/06 09:02:58;;;;;;;0.28;0.15;;;;;;;;;;4898489;28;20077;-83
2023/09/06 09:05:30;;;;;;;0.20;0.10;;;;;;;;;;4900574;28;20059;-84
2023/09/06 09:07:59;;;;;;;0.50;0.30;;;;;;;;;;4904021;28;20043;-85
2023/09/06 09:10:33;;;;;;;0.20;0.10;;;;;;;;;;4924346;28;20504;-86
2023/09/06 09:13:08;;;;;;;0.20;0.10;;;;;;;;;;4924276;28;20110;-83
2023/09/06 09:15:34;;;;;;;0.20;0.00;;;;;;;;;;4909462;28;20042;-82
2023/09/06 09:18:09;;;;;;;0.28;0.20;;;;;;;;;;4905886;28;20499;-83
2023/09/06 09:20:38;;;;;;;0.20;0.10;;;;;;;;;;4919405;28;20054;-84
2023/09/06 09:23:14;;;;;;;0.20;0.10;;;;;;;;;;4929796;28;20051;-85
2023/09/06 09:26:01;;;;;;;0.20;0.10;;;;;;;;;;4933782;28;20578;-84
2023/09/06 09:28:28;;;;;;;0.20;0.13;;;;;;;;;;4924980;28;20059;-84
2023/09/06 09:30:57;;;;;;;0.20;0.10;;;;;;;;;;4929835;28;20047;-83
2023/09/06 09:33:39;;;;;;;0.30;0.13;;;;;;;;;;4944630;28;20440;-85
2023/09/06 09:36:08;;;;;;;0.20;0.10;;;;;;;;;;4930857;28;21206;-83
2023/09/06 09:38:34;;;;;;;0.20;0.10;;;;;;;;;;4932172;28;20456;-84
2023/09/06 09:41:05;;;;;;;0.47;0.25;;;;;;;;;;4947193;28;20171;-85
2023/09/06 09:43:31;;;;;;;0.20;0.10;;;;;;;;;;4929493;28;20435;-85
2023/09/06 09:46:18;;;;;;;0.20;0.03;;;;;;;;;;4924159;28;20055;-85
2023/09/06 09:48:46;;;;;;;0.20;0.10;;;;;;;;;;4929587;28;20472;-84
2023/09/06 09:51:16;;;;;;;0.20;0.10;;;;;;;;;;4911395;28;20055;-83
2023/09/06 09:53:42;;;;;;;0.20;0.10;;;;;;;;;;4949104;28;20134;-84
2023/09/06 09:56:28;;;;;;;0.20;0.20;;;;;;;;;;4939242;28;20071;-84
2023/09/06 09:58:57;;;;;;;0.20;0.10;;;;;;;;;;4942110;28;20042;-85
2023/09/06 10:01:32;;;;;;;0.20;0.00;;;;;;;;;;4933701;28;20046;-83
2023/09/06 10:04:10;;;;;;;0.20;0.03;;;;;;;;;;4926247;28;20051;-86
2023/09/06 10:06:36;;;;;;;0.20;0.10;;;;;;;;;;4949905;28;20051;-82
2023/09/06 10:09:12;;;;;;;0.20;0.05;;;;;;;;;;4931840;28;20037;-82
2023/09/06 10:11:47;;;;;;;0.20;0.10;;;;;;;;;;4902748;28;20062;-85
2023/09/06 10:14:15;;;;;;;0.20;0.10;;;;;;;;;;4930300;28;20424;-84
2023/09/06 10:17:22;;;;;;;0.50;0.20;;;;;;;;;;4915250;28;20086;-85
2023/09/06 10:19:53;;;;;;;0.20;0.10;;;;;;;;;;4899030;28;20412;-85
2023/09/06 10:22:20;;;;;;;0.20;0.10;;;;;;;;;;4932742;28;20379;-83
2023/09/06 10:24:51;;;;;;;0.20;0.00;;;;;;;;;;4932982;28;20776;-84
2023/09/06 10:27:19;;;;;;;0.20;0.10;;;;;;;;;;4927189;28;20046;-84
2023/09/06 10:30:17;;;;;;;0.20;0.10;;;;;;;;;;4919361;28;20729;-85
2023/09/06 10:32:43;;;;;;;0.20;0.10;;;;;;;;;;4903691;28;20055;-84
2023/09/06 10:35:34;;;;;;;0.20;0.13;;;;;;;;;;4927483;28;20276;-84
2023/09/06 10:38:07;;;;;;;0.52;0.20;;;;;;;;;;4952783;28;20055;-86
2023/09/06 10:40:55;;;;;;;0.77;0.17;;;;;;;;;;4933387;28;20234;-84
2023/09/06 10:43:42;;;;;;;0.20;0.08;;;;;;;;;;4927230;28;20045;-84
2023/09/06 10:46:11;;;;;;;0.20;0.08;;;;;;;;;;4924411;28;20043;-82
2023/09/06 10:49:01;;;;;;;0.20;0.10;;;;;;;;;;4917939;28;20544;-83
2023/09/06 10:51:31;;;;;;;0.20;0.10;;;;;;;;;;4923317;28;20311;-85
2023/09/06 10:54:02;;;;;;;0.20;0.10;;;;;;;;;;4920827;28;20159;-84
2023/09/06 10:56:42;;;;;;;0.20;0.10;;;;;;;;;;4938338;28;20040;-83
2023/09/06 10:59:18;;;;;;;0.20;0.10;;;;;;;;;;4940698;28;20504;-82
2023/09/06 11:02:02;;;;;;;0.20;0.10;;;;;;;;;;4944081;28;20045;-84
2023/09/06 11:04:28;;;;;;;0.20;0.10;;;;;;;;;;4917871;28;20588;-84
2023/09/06 11:06:54;;;;;;;0.20;0.10;;;;;;;;;;4905042;29;20098;-84
2023/09/06 11:09:25;;;;;;;0.20;0.10;;;;;;;;;;4923359;28;20035;-83
2023/09/06 11:12:05;;;;;;;0.20;0.10;;;;;;;;;;4939223;28;20157;-84
2023/09/06 11:14:31;;;;;;;0.20;0.00;;;;;;;;;;4931152;28;20050;-84
2023/09/06 11:16:57;;;;;;;0.20;0.10;;;;;;;;;;4901062;28;20435;-84
2023/09/06 11:19:27;;;;;;;0.20;0.10;;;;;;;;;;4911724;28;20043;-84
2023/09/06 11:22:11;;;;;;;0.30;0.17;;;;;;;;;;4926855;28;20039;-84
2023/09/06 11:24:40;;;;;;;0.20;0.10;;;;;;;;;;4920994;28;20469;-85
2023/09/06 11:27:16;;;;;;;0.20;0.05;;;;;;;;;;4928037;28;20043;-85
2023/09/06 11:29:43;;;;;;;0.20;0.20;;;;;;;;;;4925537;28;20516;-83
2023/09/06 11:32:18;;;;;;;0.20;0.05;;;;;;;;;;4933760;28;20567;-85
2023/09/06 11:34:44;;;;;;;0.30;0.17;;;;;;;;;;4959057;28;20070;-85
2023/09/06 11:37:20;;;;;;;0.47;0.20;;;;;;;;;;4935751;28;20380;-84
2023/09/06 11:39:46;;;;;;;0.20;0.10;;;;;;;;;;4934000;28;20055;-84
2023/09/06 11:42:16;;;;;;;0.20;0.00;;;;;;;;;;4933836;28;20503;-86
2023/09/06 11:44:50;;;;;;;0.20;0.10;;;;;;;;;;4921601;28;20161;-84
2023/09/06 11:47:20;;;;;;;0.20;0.10;;;;;;;;;;4929442;28;20062;-82
2023/09/06 11:49:47;;;;;;;0.20;0.10;;;;;;;;;;4932142;28;20340;-84
2023/09/06 11:52:29;;;;;;;0.20;0.10;;;;;;;;;;4949113;28;20050;-84
2023/09/06 11:55:14;;;;;;;0.30;0.20;;;;;;;;;;4939640;28;20105;-85
2023/09/06 11:57:46;;;;;;;0.20;0.05;;;;;;;;;;4940169;28;20424;-85
2023/09/06 12:00:36;;;;;;;0.20;0.10;;;;;;;;;;4942234;28;20062;-84
2023/09/06 12:03:09;;;;;;;0.22;0.20;;;;;;;;;;4943605;28;20485;-85
2023/09/06 12:05:45;;;;;;;0.20;0.10;;;;;;;;;;4913628;28;20408;-84
2023/09/06 12:08:19;;;;;;;0.20;0.10;;;;;;;;;;4946119;28;20066;-85
2023/09/06 12:10:54;;;;;;;0.20;0.03;;;;;;;;;;4937550;28;20050;-83
2023/09/06 12:13:27;;;;;;;0.20;0.10;;;;;;;;;;4923884;28;20183;-85
2023/09/06 12:15:53;;;;;;;0.20;0.10;;;;;;;;;;4944985;28;20856;-83
2023/09/06 12:18:22;;;;;;;0.20;0.10;;;;;;;;;;4941250;28;20318;-85
2023/09/06 12:21:02;;;;;;;0.20;0.10;;;;;;;;;;4956444;28;21873;-84
2023/09/06 12:23:29;;;;;;;0.20;0.10;;;;;;;;;;4946607;28;20043;-83
2023/09/06 12:25:58;;;;;;;0.20;0.10;;;;;;;;;;4946623;28;20039;-83
2023/09/06 12:28:24;;;;;;;0.20;0.03;;;;;;;;;;4950463;28;20053;-84
2023/09/06 12:30:54;;;;;;;0.20;0.10;;;;;;;;;;4942705;28;20102;-84
2023/09/06 12:33:22;;;;;;;0.20;0.10;;;;;;;;;;4917055;28;20053;-82
2023/09/06 12:35:57;;;;;;;0.20;0.20;;;;;;;;;;4942478;28;20107;-84
2023/09/06 12:38:47;;;;;;;0.20;0.10;;;;;;;;;;4934528;28;20428;-83
2023/09/06 12:41:18;;;;;;;0.20;0.20;;;;;;;;;;4947518;28;20066;-84
2023/09/06 12:43:44;;;;;;;0.20;0.10;;;;;;;;;;4941946;28;20162;-84
2023/09/06 12:46:19;;;;;;;0.20;0.10;;;;;;;;;;4952781;28;20511;-82
2023/09/06 12:48:48;;;;;;;0.20;0.10;;;;;;;;;;4934388;28;20048;-84
2023/09/06 12:51:14;;;;;;;0.20;0.10;;;;;;;;;;4939928;28;20054;-83
2023/09/06 12:53:43;;;;;;;0.20;0.10;;;;;;;;;;4937214;28;20042;-84
2023/09/06 12:56:11;;;;;;;0.20;0.10;;;;;;;;;;4946511;28;20034;-85
2023/09/06 12:58:43;;;;;;;0.20;0.10;;;;;;;;;;4937587;28;20058;-83
2023/09/06 13:01:18;;;;;;;0.20;0.10;;;;;;;;;;4936201;28;20051;-83
2023/09/06 13:03:45;;;;;;;0.20;0.10;;;;;;;;;;4935801;28;20051;-83
2023/09/06 13:06:16;;;;;;;0.20;0.20;;;;;;;;;;4928522;28;20046;-84
2023/09/06 13:08:44;;;;;;;0.20;0.10;;;;;;;;;;4937396;28;20081;-82
2023/09/06 13:11:12;;;;;;;0.22;0.15;;;;;;;;;;4949614;28;20074;-82
2023/09/06 13:13:39;;;;;;;0.20;0.13;;;;;;;;;;4932107;28;20058;-83
2023/09/06 13:16:08;;;;;;;0.20;0.10;;;;;;;;;;4927870;28;20042;-84
2023/09/06 13:18:34;;;;;;;0.20;0.10;;;;;;;;;;4950454;28;20047;-83
2023/09/06 13:21:03;;;;;;;0.20;0.10;;;;;;;;;;4935253;28;20074;-82
2023/09/06 13:23:32;;;;;;;0.20;0.10;;;;;;;;;;4905481;28;20263;-84
2023/09/06 13:26:13;;;;;;;0.20;0.10;;;;;;;;;;4917602;28;20044;-84
2023/09/06 13:28:43;;;;;;;0.20;0.10;;;;;;;;;;4934275;28;20122;-85
2023/09/06 13:31:10;;;;;;;0.20;0.10;;;;;;;;;;4920421;28;20053;-85
2023/09/06 13:33:37;;;;;;;0.20;0.10;;;;;;;;;;4891769;28;20039;-86
2023/09/06 13:36:09;;;;;;;0.20;0.10;;;;;;;;;;4926493;28;20043;-86
2023/09/06 13:38:35;;;;;;;0.20;0.10;;;;;;;;;;4926810;28;20411;-84
2023/09/06 13:41:09;;;;;;;0.20;0.10;;;;;;;;;;4922074;28;20051;-87
2023/09/06 13:43:43;;;;;;;0.20;0.10;;;;;;;;;;4910429;28;20055;-86
2023/09/06 13:46:09;;;;;;;0.30;0.20;;;;;;;;;;4908642;28;20226;-86
2023/09/06 13:48:38;;;;;;;0.20;0.10;;;;;;;;;;4915191;28;20051;-86
2023/09/06 13:51:07;;;;;;;0.20;0.10;;;;;;;;;;4914992;28;20055;-86
2023/09/06 13:53:35;;;;;;;0.20;0.10;;;;;;;;;;4945373;28;20416;-86
2023/09/06 13:56:03;;;;;;;0.20;0.10;;;;;;;;;;4931868;28;20039;-89
2023/09/06 13:58:31;;;;;;;0.20;0.10;;;;;;;;;;4911961;28;20222;-86
2023/09/06 14:00:59;;;;;;;0.20;0.20;;;;;;;;;;4940836;28;20058;-85
2023/09/06 14:03:25;;;;;;;0.20;0.10;;;;;;;;;;4937419;28;20035;-84
2023/09/06 14:05:52;;;;;;;0.20;0.10;;;;;;;;;;4927870;28;20452;-85
2023/09/06 14:08:18;;;;;;;0.20;0.10;;;;;;;;;;4942348;28;20047;-85
2023/09/06 14:10:44;;;;;;;0.30;0.10;;;;;;;;;;4930552;28;20039;-86
2023/09/06 14:13:10;;;;;;;0.30;0.20;;;;;;;;;;4927422;28;20035;-84
2023/09/06 14:15:36;;;;;;;0.20;0.10;;;;;;;;;;4924634;28;21703;-85
2023/09/06 14:18:04;;;;;;;0.30;0.20;;;;;;;;;;4944708;28;20051;-84
2023/09/06 14:20:31;;;;;;;0.73;0.20;;;;;;;;;;4937904;28;20134;-84
2023/09/06 14:22:58;;;;;;;0.28;0.10;;;;;;;;;;4930756;28;20053;-86
2023/09/06 14:25:26;;;;;;;0.35;0.15;;;;;;;;;;4918549;28;20349;-88
2023/09/06 14:27:58;;;;;;;0.20;0.10;;;;;;;;;;4919529;28;20043;-86
2023/09/06 14:30:24;;;;;;;0.20;0.15;;;;;;;;;;4941936;28;20138;-86
2023/09/06 14:32:50;;;;;;;0.20;0.10;;;;;;;;;;4916987;28;20466;-84
2023/09/06 14:35:17;;;;;;;0.20;0.00;;;;;;;;;;4947400;28;20562;-85
2023/09/06 14:37:43;;;;;;;0.20;0.10;;;;;;;;;;4939174;28;20039;-85
2023/09/06 14:40:09;;;;;;;0.20;0.10;;;;;;;;;;4936981;28;20125;-86
2023/09/06 14:42:35;;;;;;;0.20;0.10;;;;;;;;;;4926462;28;20047;-84
2023/09/06 14:45:11;;;;;;;0.20;0.10;;;;;;;;;;4937166;28;20047;-89
2023/09/06 14:47:38;;;;;;;0.20;0.20;;;;;;;;;;4936441;28;20040;-85
2023/09/06 14:50:10;;;;;;;0.50;0.32;;;;;;;;;;4925326;28;20047;-90
2023/09/06 14:52:36;;;;;;;0.20;0.10;;;;;;;;;;4930082;23;20052;-80
2023/09/06 14:55:02;;;;;;;0.20;0.10;;;;;;;;;;4893410;29;20831;-79
2023/09/06 14:57:28;;;;;;;0.20;0.10;;;;;;;;;;4879759;29;20066;-80
2023/09/06 14:59:54;;;;;;;0.20;0.10;;;;;;;;;;4899932;29;20811;-79
2023/09/06 15:02:20;;;;;;;0.20;0.10;;;;;;;;;;4892050;29;20071;-79
2023/09/06 15:04:46;;;;;;;0.20;0.10;;;;;;;;;;4906851;29;20475;-81
2023/09/06 15:07:13;;;;;;;0.20;0.10;;;;;;;;;;4912764;29;20074;-80
2023/09/06 15:09:40;;;;;;;0.20;0.10;;;;;;;;;;4900233;29;20043;-80
2023/09/06 15:12:06;;;;;;;0.20;0.10;;;;;;;;;;4900136;29;20134;-80
2023/09/06 15:14:32;;;;;;;0.20;0.10;;;;;;;;;;4898430;29;20583;-79
2023/09/06 15:16:58;;;;;;;0.20;0.10;;;;;;;;;;4905204;29;20044;-79
2023/09/06 15:19:24;;;;;;;0.20;0.10;;;;;;;;;;4894839;29;20127;-79